Azamara Quest — V7DM6 — position and weather

sailwx.info

Track history (hours):
 
Tides and Currents Weather Stations Pressure Air Temp Water Temp Dewpoint Dewpoint Depression Visibility Wind Speed Wind Dir Waves Ship Positions

Azamara Quest

Last reported at 2019-Jan-23 17:57 UTC. Time now 2019-Jan-23 18:29 UTC.
Position N 09°26' W 016°30'.

Length 184 m; draft 11.5 m.

Type: Tanker. MMSI: 538005401.

Date/timePositionNaut miles runAvg speedWind from/ knotsBaromVisibWave heightAir tempDewpointWater temp
2019-Jan-23 17:57N 09°26' W 016°30'512.4
2019-Jan-23 17:30N 09°31' W 016°34'612.3
2019-Jan-23 17:00N 09°35' W 016°38'612.4
2019-Jan-23 16:31N 09°40' W 016°42'912.6
2019-Jan-23 15:46N 09°47' W 016°48'712.4
2019-Jan-23 15:11N 09°52' W 016°53'211.4
2019-Jan-23 15:00N 09°54' W 016°54'712.7
2019-Jan-23 14:26N 10°00' W 016°58'613.2
2019-Jan-23 14:00N 10°05' W 017°01'612.9
2019-Jan-23 13:30N 10°11' W 017°04'612.5
2019-Jan-23 13:00N 10°15' W 017°08'  
Track history (hours):
 
Tides and Currents Weather Stations Pressure Air Temp Water Temp Dewpoint Dewpoint Depression Visibility Wind Speed Wind Dir Waves Ship Positions

Azamara Quest

Last reported at 2019-Jan-23 17:57 UTC. Time now 2019-Jan-23 18:29 UTC.
Position N 09°26' W 016°30'.

Length 184 m; draft 11.5 m.

Type: Tanker. MMSI: 538005401.

Date/timePositionNaut miles runAvg speedWind from/ knotsBaromVisibWave heightAir tempDewpointWater temp
2019-Jan-23 17:57N 09°26' W 016°30'512.4
2019-Jan-23 17:30N 09°31' W 016°34'612.3
2019-Jan-23 17:00N 09°35' W 016°38'612.4
2019-Jan-23 16:31N 09°40' W 016°42'912.6
2019-Jan-23 15:46N 09°47' W 016°48'712.4
2019-Jan-23 15:11N 09°52' W 016°53'211.4
2019-Jan-23 15:00N 09°54' W 016°54'712.7
2019-Jan-23 14:26N 10°00' W 016°58'613.2
2019-Jan-23 14:00N 10°05' W 017°01'612.9
2019-Jan-23 13:30N 10°11' W 017°04'612.5
2019-Jan-23 13:00N 10°15' W 017°08'  

Dump ship's entire track history